« 那覇基地エアーフェスタ2014【帰投編】 那覇空港 2014/12/14 sun | トップページ | 築城帰り 大分空港 2014/12/1 mon »

2014/12/20

那覇基地エアーフェスタ2014【帰投編】 那覇空港 2014/12/15 mon

那覇基地エアーフェスタは、もう終わってしまった。しかし、いつも行程の都合で、翌日帰りになるのが常だ。そこに密かな?楽しみ。朝方に、外来機の帰投が繰り広げられる。それをターミナルから眺めて、小生の航空祭がお終いとなるのであった。

ROAH 142300Z 08006KT 050V110 9999 FEW040 17/07 Q1024 RMK 1CU040 A3025

20141215_roah_800e443463

朝、RW36だったのが、この時からランチェンで18。空自の工作車が来て、ワイヤーを外している。

20141215_roah_801e443463

44-3463 E-2C 603SQ

ご同業が空ビル4Fやデッキに集まっていると、最初はリアルミッションのE2Cだった。

20141215_roah_802m5031

5031 P-3C VP-5

海自もパトロールに出発

20141215_roah_803t465731

お見送りのブルーがランプアウト

20141215_roah_804tbi

まずは4機編隊で出発

20141215_roah_805t465731

46-5731 T-4 11SQ

20141215_roah_806t465731

#1 46-5731 #246-5726

20141215_roah_807tbi

#3 46-5730 #4 66-5745

20141215_roah_808tbi

E1からランナップして

20141215_roah_809tbi

スモーク!

20141215_roah_810tbi

背後の慶良間列島がよく見えています。

20141215_roah_811tbi

20141215_roah_812tbi

エアボーンしてすぐ、4番機がスロット位置へ

20141215_roah_813f438129

20141215_roah_814f438129

43-8129 F-2B 6SQ M11

20141215_roah_815t465728

#5 46-5728 #6 46-5725

30分遅れで、残りが2機編隊で出発

20141215_roah_816t465728

20141215_roah_817t465725

#6からお手振り。今年も楽しかったですよ。ありがとうございます。

20141215_roah_818t515057

51-5057 T-400 41FTS

ROAH 150000Z 09009KT 050V120 9999 FEW040 19/09 Q1023 RMK 1CU040 A3023

20141215_roah_819m5072

5072 P-3C VP-5

20141215_roah_820jg52971

JG52971 CH-47JA VXH

陸自のチヌークが西側でT/Gトレーニング

20141215_roah_821c751078

20141215_roah_822c751078

75-1078 C-130H 401SQ

ROAH 150100Z 08013KT 040V140 9999 FEW035 SCT110 20/11 Q1023 RMK 1CU035 4AC110 A3021

20141215_roah_823e921157

今日も怪しいYSがお出かけです。

20141215_roah_824e921157

92-1157 YS-11EB

20141215_roah_825t065789

20141215_roah_826t065789

06-5789 T-4 13FTW D22

20141215_roah_827t265806

26-5806 T-4 13FTW D21

前日、会場では見れなかったT-4。REDは2匹来ていたのね。

ROAH 150200Z 11013KT 070V140 9999 FEW032 SCT120 21/12 Q1022 RMK 2CU032 3AC120 A3020

20141215_roah_828f476903

もうお昼も近づいておじさんが出発

20141215_roah_829f476903

47-6903 RF-4E 501SQ M11

これにて、小生の那覇滞在もお終い。ゲートをくぐって搭乗待合室に向かうことに・・・

|

« 那覇基地エアーフェスタ2014【帰投編】 那覇空港 2014/12/14 sun | トップページ | 築城帰り 大分空港 2014/12/1 mon »

BI」カテゴリの記事

那覇空港」カテゴリの記事

コメント

コメントを書く



(ウェブ上には掲載しません)


コメントは記事投稿者が公開するまで表示されません。



トラックバック


この記事へのトラックバック一覧です: 那覇基地エアーフェスタ2014【帰投編】 那覇空港 2014/12/15 mon:

« 那覇基地エアーフェスタ2014【帰投編】 那覇空港 2014/12/14 sun | トップページ | 築城帰り 大分空港 2014/12/1 mon »